South Jordan, UT

3:27 AM MDT on October 23, 2014 (GMT -0600)
Herriman | Change Station
CLOSE
Current Station
Personal Weather Station
Location: Herriman, UT
Elevation: 5072 ft
Nearby Weather Stations

Elev 5072 ft 40.49 °N, 112.03 °W | Updated 4 minutes ago

Clear
Clear
48.6 °F
Feels Like 49 °F
N
0.0
Wind Variable Wind from WNW
Gusts 0.0 mph

Today
High -- | Low -- °F
--% Chance of Precip.
Yesterday
High -- | Low -- °F
Precip. -- in
7:47 AM 6:36 PM
Waning Crescent, 0% visible
Pressure 30.09 in
Visibility 10.0 miles
Clouds Few 20000 ft
Windchill 49 °F
Dew Point 29 °F
Humidity 47%
Rainfall 0.00 in
Snow Depth Not available.
UV 0 out of 12
Pollen 1.60 out of 12
PM2.5 Good
Flu Activity Sporadic
METAR KSLC 230853Z 10005KT 10SM FEW200 07/01 A3016 RMK AO2 SLP190 T00720011 53002

More Conditions Fewer Conditions

Pressure 30.09 in
Visibility 10.0 miles
Clouds Few 20000 ft
Windchill 49 °F
Dew Point 29 °F
Humidity 47%
Rainfall 0.00 in
Snow Depth Not available.
UV 0 out of 12
Pollen 1.60 out of 12
PM2.5 Good
Flu Activity Sporadic
METAR KSLC 230853Z 10005KT 10SM FEW200 07/01 A3016 RMK AO2 SLP190 T00720011 53002

More Conditions Fewer Conditions

10-Day Weather Forecast

Almanac

Astronomy

Oct. 23, 2014 Rise Set
Actual Time 7:47 AM MDT 6:36 PM MDT
Civil Twilight 7:19 AM MDT 7:04 PM MDT
Nautical Twilight 6:48 AM MDT 7:35 PM MDT
Astronomical Twilight 6:16 AM MDT 8:07 PM MDT
Moon 7:31 AM MDT 6:40 PM MDT
Length of Visible Light 11h 44m
Length of Day
10h 48m
Tomorrow will be 2m 30s shorter.
Waning Crescent, 0% of the Moon is Illuminated
Today
Waning Crescent
Oct 23
New
Oct 30
First Quarter
Nov 6
Full
Nov 14
Last Quarter

Today's Extremes

State Highs State Lows

Community

WunderPhotos

Upload Photos

1,764,199 photos uploaded!

Nearby

Air Quality

  Air Quality AQ Index Pollutant
Yesterday Good
OZONE
Yesterday Good
PM2.5
Current Good
PM2.5
Thursday Good
OZONE
Friday Good
OZONE

Snow Depth

Station Depth Elevation
Dry Fork 1 in 7160 ft
Rocky Basin-Settlement 0 in 8900 ft
Brighton 1 in 8750 ft
Mill-d North 0 in 8960 ft
Cascade Mountain 2 in 7768 ft

Earthquake Activity

City Distance Mag. Time & Date
Ferron, Utah 109 miles 2.5 10:53 PM MDT
2014-10-21
Minimum magnitude displayed is 2.5.

Coastal Water Temperatures

Place Temperature
No Stations Reporting

Nearby Weather Stations